Beogradi, Serbia

12:47 AM CET on nëntor 29, 2014 (GMT +0100)
Beograd-Karaburma | Change Station
CLOSE
Current Station
Personal Weather Stations
Location: Beograd-Karaburma, SRBIJA
Elevation: 355 ft
Nearby Weather Stations

Elev 355 ft 44.81 °N, 20.53 °E | Updated 1 minute ago

Clear
i kthjellet
39.4 °F
Feels Like 32 °F
N
12.0
Era e paqendrueshme Era from Jug
Gusts 14.0 mph

Sot
High -- | Low -- °F
--% Chance of Precip.
Yesterday
High -- | Low -- °F
Precip. -- ne
6:52 AM 3:59 PM
Waxing Crescent, 45% visible
Presioni 30.06 ne
Visioni 4.3 milje
Clouds
Ftohtesia E erses 32 °F
Pika E Veses 36 °F
Lageshtira E ajrit 86%
Rainfall 0.00 ne
Snow Depth Not available.
UV Not available.
Pollen Not available.
Air Quality Not available.
Flu Activity Not available.
METAR LYBE 282330Z 04004KT 7000 NSC 02/01 Q1018 NOSIG

More Conditions Fewer Conditions

Presioni 30.06 ne
Visioni 4.3 milje
Clouds
Ftohtesia E erses 32 °F
Pika E Veses 36 °F
Lageshtira E ajrit 86%
Rainfall 0.00 ne
Snow Depth Not available.
UV Not available.
Pollen Not available.
Air Quality Not available.
Flu Activity Not available.
METAR LYBE 282330Z 04004KT 7000 NSC 02/01 Q1018 NOSIG

More Conditions Fewer Conditions

10-Day Weather Forecast

Almanac

Astronomy

Nov. 29, 2014 Rise Set
Actual Time
Civil Twilight
Nautical Twilight
Astronomical Twilight
Moon
Length Of Visible Light
Length of Day
Tomorrow will be .
, % of the Moon is Illuminated

Today's Extremes

Country Highs Country Lows

Community

WunderPhotos

Upload Photos

1,774,339 photos uploaded!

WunderBlogs® & News

Nearby

Air Quality

  Air Quality AQ Index Pollutant
Not available.

Snow Depth

Station Depth Elevation

Earthquake Activity

City Distance Mag. Time & Date
Minimum magnitude displayed is 2.5.

Coastal Water Temperatures

Vend Temperatura

Nearby Weather Stations